ADDS TAF Data INFO
IDs: Format: Raw Decoded Include METARs

Data at: 1303 UTC 19 Jan 2018

KTEX 191255Z AUTO 00000KT 10SM CLR 00/M09 A3016 RMK AO2 T00011093

KTEX 191131Z 1912/2012 13004KT P6SM SCT150 BKN250
  FM191700 19006KT P6SM FEW110 BKN250
  FM192000 22008G14KT P6SM FEW090 BKN200
  FM200100 18008KT P6SM FEW070 BKN120
  FM200900 16008KT P6SM SCT060 BKN110